Northern Sonoma County Latest

25 Stations

15 Minute Data | America/Los_Angeles
as of 5/10/26 7:28 AM PDT
Station Date Time Temp (°F) RH (%) Dew Pt (°F) Wind Spd (mph) Wind Dir (°) Wind Gust (mph) Latest Rain (In) Daily Rain (In) Daily Max Temp (°F) Daily Min Temp (°F)
Bavarian Lion EFW 5/10/26 0715 51.0   0.5 - - - - - 0.00 0.00 51.3   2.1 48.0   0.9
Rockpile Lower (Cooley) 5/10/26 0700 54.3   4.6 80   23 48.5   4.5 1.1   0.2 ESE | 103 2.4   1.2 0.00 0.00 56.3   3.7 51.2   2.2
Rockpile Upper (Cooley) 5/10/26 0715 52.8   1.2 77   12 45.6   3.1 7.3   6.9 NNW | 332 11.0   9.2 0.00 0.00 54.3   4.1 49.8   1.1
Lower Dry Creek Valley 5/10/26 0715 51.5   0.7 100   11 51.6   2.4 1.5   1.5 WNW | 296 3.9   3.9 0.00 0.00 52.6   1.1 50.7   3.8
Geyserville-South (Nervo Station) 5/10/26 0715 51.0   3.9 - - 0.1   0.1 SW | 225 1.7   1.7 0.00 0.00 52.3   3.4 49.8   1.1
Franz Valley (Stornetta) 5/10/26 0715 50.5   3.4 98   1 49.9   3.7 0.7   0.2 N | 356 2.4   0.4 0.00 0.00 50.7   0.2 47.3   1.9
Geyserville (Ranch 3) 5/10/26 0715 52.3   0.9 100   14 52.2   3.3 1.1   0.5 E | 89 3.1   1.4 0.00 0.00 53.6   0.7 50.9   2.4
Geyserville-North (Hoffman) 5/10/26 0715 52.9   0.8 94   2 51.2   0.2 0.2   0.0 WSW | 247 1.3   0.3 0.00 0.00 53.9   1.4 48.8   2.4
Knights Valley (Bavarian Lion) 5/10/26 0715 50.4   1.4 98   0 49.8   1.3 0.2   0.2 WNW | 302 1.2   1.2 0.00 0.00 50.6   0.0 46.5   0.1
HWY 128/Chalk Hill Rd (Landslide) 5/10/26 0700 51.3   2.6 100   3 51.4   3.4 1.8   1.6 WSW | 238 3.8   2.8 0.00 0.00 51.4   0.3 50.4   3.9
Newman Knights Valley 5/10/26 0715 51.5   2.3 88   0 48.2   2.3 1.1   0.7 SSW | 213 2.7   0.7 0.00 0.00 52.8   1.7 48.7   1.1
Jimtown-North (Piccolo Ranch 15) 5/10/26 0715 51.3   1.2 100   0 51.3   1.2 0.1   0.7 SW | 219 1.1   0.7 0.00 0.00 52.0   1.0 48.5   2.1
Peterson (Ranch 09) 5/10/26 0715 51.0   1.6 96   10 49.9   1.5 1.6   1.5 NE | 34 3.3   2.1 0.00 0.00 51.8   1.1 50.1   3.1
Cloverdale-SE (Ranch 38) 5/10/26 0715 49.0   3.2 98   12 48.4   0.4 1.2   0.2 S | 170 2.3   1.4 0.00 0.00 55.2   2.5 47.7   3.5
Geyserville-East (Ranch 40) 5/10/26 0715 49.4   6.6 100   17 49.4   1.5 0.9   0.7 ENE | 58 3.4   0.1 0.00 0.00 51.8   6.5 48.7   1.1
N Chalk Hill Rd (Ranch 63) 5/10/26 0715 48.9   0.2 100   0 48.9   0.3 1.8   1.8 ENE | 61 3.4   2.3 0.00 0.00 50.1   0.2 48.5   3.2
Cloverdale-East (Ranch 83) 5/10/26 0715 50.3   1.0 - - 0.8   0.0 ESE | 107 2.5   0.1 0.00 0.00 53.7   0.8 48.1   0.2
Crazy Creek Ranch 5/10/26 0715 51.6   2.1 99   0 51.3   2.1 0.5   0.2 SE | 144 1.6   0.4 0.00 0.00 51.8   0.1 48.7   1.2
Lytton East (Hill 5) 5/10/26 0715 50.6   0.5 98   3 50.2   1.3 3.1   2.4 NNW | 329 4.8   3.1 0.00 0.00 51.1   1.4 50.4   3.2
Lytton East (Shop Hill Bottom) 5/10/26 0715 50.9   0.9 100   2 50.9   1.3 1.7   0.8 NNW | 331 4.7   2.8 0.00 0.00 51.2   0.1 50.4   5.2
Lytton West Hill (23PS) 5/10/26 0715 51.3   0.4 100   6 51.3   2.0 1.8   1.5 NW | 315 3.5   1.4 0.00 0.00 51.8   0.8 50.7   2.7
Lytton West Lower (Lew 6) 5/10/26 0715 51.1   1.8 100   0 51.1   1.8 1.9   1.9 W | 280 3.3   3.3 0.00 0.00 51.3   0.7 48.3   4.0
Whitton Ranch (201e) 5/10/26 0715 51.5   0.5 100   0 51.5   0.5 0.9   0.2 NNE | 25 1.8   0.2 0.00 0.00 51.7   0.4 44.2   1.2
Upper Dry Creek Valley 5/10/26 0415 50.8   3.8 96   2 49.8   4.4 1.5   1.5 SSW | 194 3.0   3.0 0.00 0.00 51.4   0.1 48.9   2.1
Big River 5/10/26 0715 51.8   1.2 100   1 51.8   1.6 0.5   0.4 NNE | 29 2.0   0.1 0.00 0.00 52.1   0.1 50.5   2.1
Max     54.3 100 52.2 7.3 - 11.0 0.00 0.00 56.3 51.2
Avg     51.2 96 50.2 1.4 - 3.1 0.00 - - -
Min     48.9 77 45.6 0.1 - 1.1 0.00 0.00 50.1 44.2